Dubuque Regional Airport Dubuque US
ICAO: KDBQ
IATA: DBQ
Category: Large
Scheduled Services: Yes

Elevation: 1077 ft
TransAlt. 18000 ft.

Airport Communications:
ATIS:127.25
CHICAGO CNTR:127
CTAF:119.5
GND:121.8
FORT DODGE RDO:122.05
TWR:119.5
UNICOM:122.95

KDBQ Zoom In..

If you have problems with the map follow the link
https://www.worldairports.se/pages/airport.php?
ICAO=KDBQ

Runways:

(A) RW 13 length 6502 ft width 100 ft
---- / hdg 132

(B) RW 18 length 6327 ft width 150 ft
---- / hdg 177

(C) RW 31 length 6502 ft width 100 ft
ILS 108.70 / hdg 312

(D) RW 36 length 6327 ft width 150 ft
ILS 110.90 / hdg 357

Location; KDBQ
Day. 21 / Time. 17.53 Zulu
* Altimeter: 30.21
* Temperature: 08° c. 46.4°f.
* Wind from: 210° Speed 13 kn with Gusts up to 23 kn.
Dewpoint: -06° c.
Visibility: 10 Statute Miles.
Clouds: Clear (automated report).

KDBQ 211753Z 21013G23KT 10SM CLR 08/M06 A3021 RMK AO2 SLP241 T00781056 10078 21061 58035


Wind From 210°
Speed 13 kn.

 
 
jpsmedia.com for Web Design worldairports.se 2018   terms of use